Pataskala, OH (43062)

11:46 PM EDT on August 22, 2014 (GMT -0400)
Jefferson Ridge | Change Station
CLOSE
Current Station
Personal Weather Station
Location: Pataskala, OH
Elevation: 1200 ft
Nearby Weather Stations

Elev 1200 ft 40.02 °N, 82.64 °W | Updated 1 minute ago

Scattered Clouds
Scattered Clouds
71.5 °F
Feels Like 71.5 °F
N
0.0
Wind Variable Wind from WSW
Gusts 0.0 mph

Today
High -- | Low -- °F
--% Chance of Precip.
Yesterday
High -- | Low -- °F
Precip. -- in
6:48 AM 8:17 PM
Waning Crescent, 5% visible
Pressure 29.97 in
Visibility 10.0 miles
Clouds Few 6500 ft
Scattered Clouds 25000 ft
Dew Point 71 °F
Humidity 98%
Rainfall 1.65 in
Snow Depth Not available.
UV 0 out of 12
Pollen 6.50 out of 12
Ozone Good
PM2.5 Moderate
Flu Activity Not available.
METAR KCMH 230251Z COR 00000KT 10SM FEW065 SCT250 25/22 A2998 RMK AO2 SLP147 T02500217 51012

More Conditions Fewer Conditions

Pressure 29.97 in
Visibility 10.0 miles
Clouds Few 6500 ft
Scattered Clouds 25000 ft
Dew Point 71 °F
Humidity 98%
Rainfall 1.65 in
Snow Depth Not available.
UV 0 out of 12
Pollen 6.50 out of 12
Ozone Good
PM2.5 Moderate
Flu Activity Not available.
METAR KCMH 230251Z COR 00000KT 10SM FEW065 SCT250 25/22 A2998 RMK AO2 SLP147 T02500217 51012

More Conditions Fewer Conditions

10-Day Weather Forecast

Almanac

Astronomy

Aug. 22, 2014 Rise Set
Actual Time 6:48 AM EDT 8:17 PM EDT
Civil Twilight 6:20 AM EDT 8:45 PM EDT
Nautical Twilight 5:46 AM EDT 9:19 PM EDT
Astronomical Twilight 5:10 AM EDT 9:55 PM EDT
Moon 4:10 AM EDT (8/22) 6:25 PM EDT (8/22)
Length of Visible Light 14h 25m
Length of Day
13h 28m
Tomorrow will be 2m 26s shorter.
Waning Crescent, 5% of the Moon is Illuminated
Today
Waning Crescent
Aug 25
New
Sep 2
First Quarter
Sep 8
Full
Sep 15
Last Quarter

Today's Extremes

State Highs State Lows

Community

WunderPhotos

Upload Photos

1,746,352 photos uploaded!

WunderBlogs® & News

Nearby

Air Quality

  Air Quality AQ Index Pollutant
Yesterday Good
PM2.5
Yesterday Good
OZONE
Current Moderate
PM2.5
Current Good
OZONE
Friday Moderate
PM2.5
Friday Good
OZONE
Saturday Moderate
OZONE
Saturday Moderate
PM2.5
Sunday Moderate
OZONE
Sunday Moderate
PM2.5
Monday Moderate
OZONE
Monday Moderate
PM2.5
Tuesday Moderate
OZONE
Tuesday Moderate
PM2.5
Wednesday Moderate
OZONE
Wednesday Moderate
PM2.5

Snow Depth

Station Depth Elevation
No new snow has been reported.

Earthquake Activity

City Distance Mag. Time & Date
No recent earthquake activity has been reported nearby.
Minimum magnitude displayed is 2.5.

Coastal Water Temperatures

Place Temperature
No Stations Reporting

Nearby Weather Stations